sensor_id;sensor_type;location;lat;lon;timestamp;pressure;altitude;pressure_sealevel;temperature;humidity
60099;BME280;62818;49.394;8.686;2024-01-07T00:01:48;99950.06;;;4.54;100.00
60099;BME280;62818;49.394;8.686;2024-01-07T00:03:51;99944.03;;;4.54;100.00
60099;BME280;62818;49.394;8.686;2024-01-07T00:05:51;99948.06;;;4.48;100.00
60099;BME280;62818;49.394;8.686;2024-01-07T00:07:52;99946.53;;;4.45;100.00
60099;BME280;62818;49.394;8.686;2024-01-07T00:09:52;99950.75;;;4.56;100.00
60099;BME280;62818;49.394;8.686;2024-01-07T00:11:53;99944.03;;;4.54;100.00
60099;BME280;62818;49.394;8.686;2024-01-07T00:13:53;99947.88;;;4.49;100.00
60099;BME280;62818;49.394;8.686;2024-01-07T00:15:54;99948.69;;;4.60;100.00
60099;BME280;62818;49.394;8.686;2024-01-07T00:17:55;99946.78;;;4.52;100.00
60099;BME280;62818;49.394;8.686;2024-01-07T00:19:56;99952.63;;;4.46;100.00
60099;BME280;62818;49.394;8.686;2024-01-07T00:21:57;99949.50;;;4.60;100.00
60099;BME280;62818;49.394;8.686;2024-01-07T00:23:58;99953.13;;;4.49;100.00
60099;BME280;62818;49.394;8.686;2024-01-07T00:25:58;99954.53;;;4.54;100.00
60099;BME280;62818;49.394;8.686;2024-01-07T00:27:58;99954.75;;;4.60;100.00
60099;BME280;62818;49.394;8.686;2024-01-07T00:29:59;99954.56;;;4.71;100.00
60099;BME280;62818;49.394;8.686;2024-01-07T00:31:59;99952.25;;;4.59;100.00
60099;BME280;62818;49.394;8.686;2024-01-07T00:34:00;99952.19;;;4.50;100.00
60099;BME280;62818;49.394;8.686;2024-01-07T00:36:01;99951.50;;;4.48;100.00
60099;BME280;62818;49.394;8.686;2024-01-07T00:38:02;99952.34;;;4.49;100.00
60099;BME280;62818;49.394;8.686;2024-01-07T00:40:02;99952.84;;;4.53;100.00
60099;BME280;62818;49.394;8.686;2024-01-07T00:42:04;99951.78;;;4.45;100.00
60099;BME280;62818;49.394;8.686;2024-01-07T00:44:05;99948.22;;;4.46;100.00
60099;BME280;62818;49.394;8.686;2024-01-07T00:46:05;99949.03;;;4.47;100.00
60099;BME280;62818;49.394;8.686;2024-01-07T00:48:06;99954.84;;;4.41;100.00
60099;BME280;62818;49.394;8.686;2024-01-07T00:50:09;99957.88;;;4.46;100.00
60099;BME280;62818;49.394;8.686;2024-01-07T00:52:10;99955.75;;;4.49;100.00
60099;BME280;62818;49.394;8.686;2024-01-07T00:54:11;99954.06;;;4.40;100.00
60099;BME280;62818;49.394;8.686;2024-01-07T00:56:11;99956.69;;;4.40;100.00
60099;BME280;62818;49.394;8.686;2024-01-07T00:58:11;99960.66;;;4.44;100.00
60099;BME280;62818;49.394;8.686;2024-01-07T01:00:12;99956.78;;;4.39;100.00
60099;BME280;62818;49.394;8.686;2024-01-07T01:02:13;99959.38;;;4.48;100.00
60099;BME280;62818;49.394;8.686;2024-01-07T01:04:13;99958.25;;;4.51;100.00
60099;BME280;62818;49.394;8.686;2024-01-07T01:06:14;99962.88;;;4.39;100.00
60099;BME280;62818;49.394;8.686;2024-01-07T01:08:14;99963.56;;;4.41;100.00
60099;BME280;62818;49.394;8.686;2024-01-07T01:10:15;99958.81;;;4.45;100.00
60099;BME280;62818;49.394;8.686;2024-01-07T01:12:17;99958.81;;;4.45;100.00
60099;BME280;62818;49.394;8.686;2024-01-07T01:14:17;99965.06;;;4.44;100.00
60099;BME280;62818;49.394;8.686;2024-01-07T01:16:18;99964.63;;;4.48;100.00
60099;BME280;62818;49.394;8.686;2024-01-07T01:18:21;99967.84;;;4.42;100.00
60099;BME280;62818;49.394;8.686;2024-01-07T01:20:21;99966.56;;;4.46;100.00
60099;BME280;62818;49.394;8.686;2024-01-07T01:22:22;99967.25;;;4.48;100.00
60099;BME280;62818;49.394;8.686;2024-01-07T01:24:23;99971.44;;;4.41;100.00
60099;BME280;62818;49.394;8.686;2024-01-07T01:26:23;99967.44;;;4.37;100.00
60099;BME280;62818;49.394;8.686;2024-01-07T01:28:23;99974.69;;;4.53;100.00
60099;BME280;62818;49.394;8.686;2024-01-07T01:30:24;99971.44;;;4.41;100.00
60099;BME280;62818;49.394;8.686;2024-01-07T01:32:24;99972.78;;;4.45;100.00
60099;BME280;62818;49.394;8.686;2024-01-07T01:34:25;99972.97;;;4.62;100.00
60099;BME280;62818;49.394;8.686;2024-01-07T01:36:25;99970.31;;;4.44;100.00
60099;BME280;62818;49.394;8.686;2024-01-07T01:38:26;99975.09;;;4.58;100.00
60099;BME280;62818;49.394;8.686;2024-01-07T01:40:27;99977.78;;;4.39;100.00
60099;BME280;62818;49.394;8.686;2024-01-07T01:42:27;99972.97;;;4.62;100.00
60099;BME280;62818;49.394;8.686;2024-01-07T01:44:27;99978.91;;;4.36;100.00
60099;BME280;62818;49.394;8.686;2024-01-07T01:46:29;99975.44;;;4.63;100.00
60099;BME280;62818;49.394;8.686;2024-01-07T01:48:30;99976.16;;;4.38;100.00
60099;BME280;62818;49.394;8.686;2024-01-07T01:50:30;99978.38;;;4.33;100.00
60099;BME280;62818;49.394;8.686;2024-01-07T01:52:31;99978.09;;;4.36;100.00
60099;BME280;62818;49.394;8.686;2024-01-07T01:54:32;99985.44;;;4.60;100.00
60099;BME280;62818;49.394;8.686;2024-01-07T01:56:33;99980.78;;;4.54;100.00
60099;BME280;62818;49.394;8.686;2024-01-07T01:58:33;99980.56;;;4.37;100.00
60099;BME280;62818;49.394;8.686;2024-01-07T02:00:34;99978.91;;;4.36;100.00
60099;BME280;62818;49.394;8.686;2024-01-07T02:02:34;99986.50;;;4.39;100.00
60099;BME280;62818;49.394;8.686;2024-01-07T02:04:35;99983.88;;;4.39;100.00
60099;BME280;62818;49.394;8.686;2024-01-07T02:06:35;99988.72;;;4.34;100.00
60099;BME280;62818;49.394;8.686;2024-01-07T02:08:36;99982.31;;;4.19;100.00
60099;BME280;62818;49.394;8.686;2024-01-07T02:10:37;99986.97;;;4.25;100.00
60099;BME280;62818;49.394;8.686;2024-01-07T02:12:37;99988.59;;;4.36;100.00
60099;BME280;62818;49.394;8.686;2024-01-07T02:14:38;99996.50;;;4.26;100.00
60099;BME280;62818;49.394;8.686;2024-01-07T02:16:39;99991.94;;;4.28;100.00
60099;BME280;62818;49.394;8.686;2024-01-07T02:18:44;99990.56;;;4.24;100.00
60099;BME280;62818;49.394;8.686;2024-01-07T02:20:45;99999.97;;;4.17;100.00
60099;BME280;62818;49.394;8.686;2024-01-07T02:22:45;99994.16;;;4.23;100.00
60099;BME280;62818;49.394;8.686;2024-01-07T02:24:46;99998.34;;;4.16;100.00
60099;BME280;62818;49.394;8.686;2024-01-07T02:26:46;99995.13;;;4.22;100.00
60099;BME280;62818;49.394;8.686;2024-01-07T02:28:47;99991.41;;;4.25;100.00
60099;BME280;62818;49.394;8.686;2024-01-07T02:30:47;100003.94;;;4.31;100.00
60099;BME280;62818;49.394;8.686;2024-01-07T02:32:48;99995.81;;;4.24;100.00
60099;BME280;62818;49.394;8.686;2024-01-07T02:34:48;99994.84;;;4.25;100.00
60099;BME280;62818;49.394;8.686;2024-01-07T02:36:49;99993.47;;;4.21;100.00
60099;BME280;62818;49.394;8.686;2024-01-07T02:38:49;99999.03;;;4.45;100.00
60099;BME280;62818;49.394;8.686;2024-01-07T02:40:49;99996.09;;;4.21;100.00
60099;BME280;62818;49.394;8.686;2024-01-07T02:42:50;99990.25;;;4.27;100.00
60099;BME280;62818;49.394;8.686;2024-01-07T02:44:50;99993.53;;;4.39;100.00
60099;BME280;62818;49.394;8.686;2024-01-07T02:46:51;99997.47;;;4.53;100.00
60099;BME280;62818;49.394;8.686;2024-01-07T02:48:51;99989.50;;;4.44;100.00
60099;BME280;62818;49.394;8.686;2024-01-07T02:50:51;99991.25;;;4.54;100.00
60099;BME280;62818;49.394;8.686;2024-01-07T02:52:52;99992.19;;;4.35;100.00
60099;BME280;62818;49.394;8.686;2024-01-07T02:54:52;99993.88;;;4.54;100.00
60099;BME280;62818;49.394;8.686;2024-01-07T02:56:53;99988.84;;;4.42;100.00
60099;BME280;62818;49.394;8.686;2024-01-07T02:58:53;99988.97;;;4.41;100.00
60099;BME280;62818;49.394;8.686;2024-01-07T03:00:53;99992.88;;;4.27;100.00
60099;BME280;62818;49.394;8.686;2024-01-07T03:02:54;99997.38;;;4.44;100.00
60099;BME280;62818;49.394;8.686;2024-01-07T03:04:54;99993.19;;;4.79;100.00
60099;BME280;62818;49.394;8.686;2024-01-07T03:06:55;99994.38;;;4.39;100.00
60099;BME280;62818;49.394;8.686;2024-01-07T03:08:55;99998.53;;;4.32;100.00
60099;BME280;62818;49.394;8.686;2024-01-07T03:10:56;99991.41;;;4.25;100.00
60099;BME280;62818;49.394;8.686;2024-01-07T03:12:56;99997.88;;;4.21;100.00
60099;BME280;62818;49.394;8.686;2024-01-07T03:14:56;100003.88;;;4.13;100.00
60099;BME280;62818;49.394;8.686;2024-01-07T03:16:57;100000.06;;;4.25;100.00
60099;BME280;62818;49.394;8.686;2024-01-07T03:18:57;99998.50;;;4.42;100.00
60099;BME280;62818;49.394;8.686;2024-01-07T03:20:58;100002.28;;;4.57;100.00
60099;BME280;62818;49.394;8.686;2024-01-07T03:23:00;100001.97;;;4.42;100.00
60099;BME280;62818;49.394;8.686;2024-01-07T03:25:01;100004.38;;;4.26;100.00
60099;BME280;62818;49.394;8.686;2024-01-07T03:27:01;100008.63;;;4.27;100.00
60099;BME280;62818;49.394;8.686;2024-01-07T03:29:02;100001.47;;;4.29;100.00
60099;BME280;62818;49.394;8.686;2024-01-07T03:31:13;100009.91;;;4.50;100.00
60099;BME280;62818;49.394;8.686;2024-01-07T03:33:14;100010.28;;;4.28;100.00
60099;BME280;62818;49.394;8.686;2024-01-07T03:35:15;99999.81;;;4.28;100.00
60099;BME280;62818;49.394;8.686;2024-01-07T03:37:15;100018.94;;;4.66;100.00
60099;BME280;62818;49.394;8.686;2024-01-07T03:39:17;100010.84;;;4.59;100.00
60099;BME280;62818;49.394;8.686;2024-01-07T03:41:18;100008.19;;;4.32;100.00
60099;BME280;62818;49.394;8.686;2024-01-07T03:43:19;100008.16;;;4.41;100.00
60099;BME280;62818;49.394;8.686;2024-01-07T03:45:20;100018.44;;;4.25;100.00
60099;BME280;62818;49.394;8.686;2024-01-07T03:47:20;100015.44;;;4.20;100.00
60099;BME280;62818;49.394;8.686;2024-01-07T03:49:21;100016.81;;;4.24;100.00
60099;BME280;62818;49.394;8.686;2024-01-07T03:51:21;100014.72;;;4.55;100.00
60099;BME280;62818;49.394;8.686;2024-01-07T03:53:22;100024.19;;;4.38;100.00
60099;BME280;62818;49.394;8.686;2024-01-07T03:55:23;100016.44;;;4.46;100.00
60099;BME280;62818;49.394;8.686;2024-01-07T03:57:24;100020.09;;;4.36;100.00
60099;BME280;62818;49.394;8.686;2024-01-07T03:59:24;100030.03;;;4.32;100.00
60099;BME280;62818;49.394;8.686;2024-01-07T04:01:25;100028.78;;;4.64;100.00
60099;BME280;62818;49.394;8.686;2024-01-07T04:03:26;100029.19;;;4.32;100.00
60099;BME280;62818;49.394;8.686;2024-01-07T04:05:26;100022.41;;;4.39;100.00
60099;BME280;62818;49.394;8.686;2024-01-07T04:07:27;100027.44;;;4.50;100.00
60099;BME280;62818;49.394;8.686;2024-01-07T04:09:27;100025.06;;;4.29;100.00
60099;BME280;62818;49.394;8.686;2024-01-07T04:11:28;100022.81;;;4.34;100.00
60099;BME280;62818;49.394;8.686;2024-01-07T04:13:28;100020.66;;;4.57;100.00
60099;BME280;62818;49.394;8.686;2024-01-07T04:15:29;100030.56;;;4.63;100.00
60099;BME280;62818;49.394;8.686;2024-01-07T04:17:29;100033.69;;;4.49;100.00
60099;BME280;62818;49.394;8.686;2024-01-07T04:19:30;100030.03;;;4.32;100.00
60099;BME280;62818;49.394;8.686;2024-01-07T04:21:30;100032.66;;;4.32;100.00
60099;BME280;62818;49.394;8.686;2024-01-07T04:23:31;100035.84;;;4.26;100.00
60099;BME280;62818;49.394;8.686;2024-01-07T04:25:31;100035.75;;;4.45;100.00
60099;BME280;62818;49.394;8.686;2024-01-07T04:27:35;100036.44;;;4.47;100.00
60099;BME280;62818;49.394;8.686;2024-01-07T04:29:35;100036.69;;;4.27;100.00
60099;BME280;62818;49.394;8.686;2024-01-07T04:31:36;100035.25;;;4.32;100.00
60099;BME280;62818;49.394;8.686;2024-01-07T04:33:36;100036.69;;;4.17;100.00
60099;BME280;62818;49.394;8.686;2024-01-07T04:35:37;100038.75;;;4.23;100.00
60099;BME280;62818;49.394;8.686;2024-01-07T04:37:38;100039.84;;;4.30;100.00
60099;BME280;62818;49.394;8.686;2024-01-07T04:39:38;100042.03;;;4.35;100.00
60099;BME280;62818;49.394;8.686;2024-01-07T04:41:39;100041.09;;;4.26;100.00
60099;BME280;62818;49.394;8.686;2024-01-07T04:43:39;100042.88;;;4.26;100.00
60099;BME280;62818;49.394;8.686;2024-01-07T04:45:42;100051.31;;;4.29;100.00
60099;BME280;62818;49.394;8.686;2024-01-07T04:47:43;100049.38;;;4.31;100.00
60099;BME280;62818;49.394;8.686;2024-01-07T04:49:43;100048.63;;;4.39;100.00
60099;BME280;62818;49.394;8.686;2024-01-07T04:51:44;100053.78;;;4.31;100.00
60099;BME280;62818;49.394;8.686;2024-01-07T04:53:44;100042.19;;;4.24;100.00
60099;BME280;62818;49.394;8.686;2024-01-07T04:55:44;100044.97;;;4.22;100.00
60099;BME280;62818;49.394;8.686;2024-01-07T04:57:45;100055.41;;;4.32;100.00
60099;BME280;62818;49.394;8.686;2024-01-07T04:59:46;100054.47;;;4.33;100.00
60099;BME280;62818;49.394;8.686;2024-01-07T05:01:48;100055.31;;;4.33;100.00
60099;BME280;62818;49.394;8.686;2024-01-07T05:03:48;100062.75;;;4.38;100.00
60099;BME280;62818;49.394;8.686;2024-01-07T05:05:49;100055.97;;;4.35;100.00
60099;BME280;62818;49.394;8.686;2024-01-07T05:07:49;100059.59;;;4.62;100.00
60099;BME280;62818;49.394;8.686;2024-01-07T05:09:50;100061.38;;;4.34;100.00
60099;BME280;62818;49.394;8.686;2024-01-07T05:11:50;100066.75;;;4.32;100.00
60099;BME280;62818;49.394;8.686;2024-01-07T05:13:50;100070.81;;;4.54;100.00
60099;BME280;62818;49.394;8.686;2024-01-07T05:15:51;100064.28;;;4.31;100.00
60099;BME280;62818;49.394;8.686;2024-01-07T05:17:53;100068.34;;;4.53;100.00
60099;BME280;62818;49.394;8.686;2024-01-07T05:19:54;100069.59;;;4.48;100.00
60099;BME280;62818;49.394;8.686;2024-01-07T05:21:54;100072.06;;;4.50;100.00
60099;BME280;62818;49.394;8.686;2024-01-07T05:23:55;100073.31;;;5.28;100.00
60099;BME280;62818;49.394;8.686;2024-01-07T05:25:55;100078.16;;;5.05;100.00
60099;BME280;62818;49.394;8.686;2024-01-07T05:27:56;100076.50;;;4.77;100.00
60099;BME280;62818;49.394;8.686;2024-01-07T05:29:56;100079.59;;;4.63;100.00
60099;BME280;62818;49.394;8.686;2024-01-07T05:31:57;100078.16;;;4.50;100.00
60099;BME280;62818;49.394;8.686;2024-01-07T05:34:00;100076.78;;;4.74;100.00
60099;BME280;62818;49.394;8.686;2024-01-07T05:36:00;100081.25;;;4.73;100.00
60099;BME280;62818;49.394;8.686;2024-01-07T05:38:01;100080.81;;;4.78;100.00
60099;BME280;62818;49.394;8.686;2024-01-07T05:40:02;100083.22;;;4.62;100.00
60099;BME280;62818;49.394;8.686;2024-01-07T05:42:02;100080.50;;;4.54;100.00
60099;BME280;62818;49.394;8.686;2024-01-07T05:44:03;100085.84;;;4.62;100.00
60099;BME280;62818;49.394;8.686;2024-01-07T05:46:04;100084.00;;;4.72;100.00
60099;BME280;62818;49.394;8.686;2024-01-07T05:48:04;100086.16;;;4.86;100.00
60099;BME280;62818;49.394;8.686;2024-01-07T05:50:05;100093.22;;;5.65;100.00
60099;BME280;62818;49.394;8.686;2024-01-07T05:52:06;100084.31;;;5.13;100.00
60099;BME280;62818;49.394;8.686;2024-01-07T05:54:06;100085.66;;;5.00;100.00
60099;BME280;62818;49.394;8.686;2024-01-07T05:56:07;100084.06;;;5.07;100.00
60099;BME280;62818;49.394;8.686;2024-01-07T05:58:07;100079.47;;;4.91;100.00
60099;BME280;62818;49.394;8.686;2024-01-07T06:00:09;100090.84;;;5.09;100.00
60099;BME280;62818;49.394;8.686;2024-01-07T06:02:11;100090.44;;;4.87;100.00
60099;BME280;62818;49.394;8.686;2024-01-07T06:04:12;100095.06;;;4.66;100.00
60099;BME280;62818;49.394;8.686;2024-01-07T06:06:13;100093.72;;;4.62;100.00
60099;BME280;62818;49.394;8.686;2024-01-07T06:08:14;100099.19;;;4.78;100.00
60099;BME280;62818;49.394;8.686;2024-01-07T06:10:15;100105.41;;;5.04;100.00
60099;BME280;62818;49.394;8.686;2024-01-07T06:12:15;100105.56;;;5.20;100.00
60099;BME280;62818;49.394;8.686;2024-01-07T06:14:16;100101.50;;;4.81;100.00
60099;BME280;62818;49.394;8.686;2024-01-07T06:16:16;100105.00;;;5.26;100.00
60099;BME280;62818;49.394;8.686;2024-01-07T06:18:17;100104.69;;;5.29;100.00
60099;BME280;62818;49.394;8.686;2024-01-07T06:20:17;100103.84;;;5.11;100.00
60099;BME280;62818;49.394;8.686;2024-01-07T06:22:18;100103.78;;;5.38;100.00
60099;BME280;62818;49.394;8.686;2024-01-07T06:24:18;100108.38;;;5.54;100.00
60099;BME280;62818;49.394;8.686;2024-01-07T06:26:19;100115.44;;;5.53;100.00
60099;BME280;62818;49.394;8.686;2024-01-07T06:28:19;100117.47;;;5.42;100.00
60099;BME280;62818;49.394;8.686;2024-01-07T06:30:20;100124.59;;;5.67;100.00
60099;BME280;62818;49.394;8.686;2024-01-07T06:32:20;100126.19;;;5.77;100.00
60099;BME280;62818;49.394;8.686;2024-01-07T06:34:21;100124.59;;;5.32;100.00
60099;BME280;62818;49.394;8.686;2024-01-07T06:36:22;100136.63;;;5.52;100.00
60099;BME280;62818;49.394;8.686;2024-01-07T06:38:23;100132.84;;;6.25;100.00
60099;BME280;62818;49.394;8.686;2024-01-07T06:40:25;100133.81;;;5.36;100.00
60099;BME280;62818;49.394;8.686;2024-01-07T06:42:25;100135.25;;;6.36;100.00
60099;BME280;62818;49.394;8.686;2024-01-07T06:44:26;100141.22;;;5.22;100.00
60099;BME280;62818;49.394;8.686;2024-01-07T06:46:26;100141.09;;;4.97;100.00
60099;BME280;62818;49.394;8.686;2024-01-07T06:48:27;100141.00;;;5.16;100.00
60099;BME280;62818;49.394;8.686;2024-01-07T06:50:27;100149.50;;;6.08;100.00
60099;BME280;62818;49.394;8.686;2024-01-07T06:52:28;100151.19;;;5.29;100.00
60099;BME280;62818;49.394;8.686;2024-01-07T06:54:28;100156.41;;;6.09;100.00
60099;BME280;62818;49.394;8.686;2024-01-07T06:56:29;100152.34;;;5.16;100.00
60099;BME280;62818;49.394;8.686;2024-01-07T06:58:29;100157.03;;;5.40;100.00
60099;BME280;62818;49.394;8.686;2024-01-07T07:00:30;100154.63;;;5.47;100.00
60099;BME280;62818;49.394;8.686;2024-01-07T07:02:30;100156.81;;;5.51;100.00
60099;BME280;62818;49.394;8.686;2024-01-07T07:04:31;100156.03;;;6.21;100.00
60099;BME280;62818;49.394;8.686;2024-01-07T07:06:32;100162.13;;;6.73;100.00
60099;BME280;62818;49.394;8.686;2024-01-07T07:08:32;100166.56;;;5.68;100.00
60099;BME280;62818;49.394;8.686;2024-01-07T07:10:32;100156.97;;;6.38;100.00
60099;BME280;62818;49.394;8.686;2024-01-07T07:12:33;100174.38;;;5.33;100.00
60099;BME280;62818;49.394;8.686;2024-01-07T07:14:33;100173.31;;;4.99;100.00
60099;BME280;62818;49.394;8.686;2024-01-07T07:16:34;100175.50;;;5.03;100.00
60099;BME280;62818;49.394;8.686;2024-01-07T07:18:35;100176.44;;;5.02;100.00
60099;BME280;62818;49.394;8.686;2024-01-07T07:20:35;100179.63;;;5.06;100.00
60099;BME280;62818;49.394;8.686;2024-01-07T07:22:38;100185.41;;;4.82;100.00
60099;BME280;62818;49.394;8.686;2024-01-07T07:24:40;100192.88;;;4.77;100.00
60099;BME280;62818;49.394;8.686;2024-01-07T07:26:41;100191.72;;;4.89;100.00
60099;BME280;62818;49.394;8.686;2024-01-07T07:28:42;100189.47;;;5.04;100.00
60099;BME280;62818;49.394;8.686;2024-01-07T07:30:43;100192.78;;;5.06;100.00
60099;BME280;62818;49.394;8.686;2024-01-07T07:32:43;100194.66;;;5.13;100.00
60099;BME280;62818;49.394;8.686;2024-01-07T07:34:44;100205.69;;;5.44;100.00
60099;BME280;62818;49.394;8.686;2024-01-07T07:36:44;100205.72;;;5.62;100.00
60099;BME280;62818;49.394;8.686;2024-01-07T07:38:45;100205.06;;;5.87;100.00
60099;BME280;62818;49.394;8.686;2024-01-07T07:40:45;100210.34;;;5.77;100.00
60099;BME280;62818;49.394;8.686;2024-01-07T07:42:52;100207.09;;;5.11;100.00
60099;BME280;62818;49.394;8.686;2024-01-07T07:44:53;100202.41;;;5.15;100.00
60099;BME280;62818;49.394;8.686;2024-01-07T07:46:53;100209.75;;;5.39;100.00
60099;BME280;62818;49.394;8.686;2024-01-07T07:48:53;100208.44;;;5.25;100.00
60099;BME280;62818;49.394;8.686;2024-01-07T07:50:54;100212.13;;;5.05;100.00
60099;BME280;62818;49.394;8.686;2024-01-07T07:52:55;100217.69;;;5.02;100.00
60099;BME280;62818;49.394;8.686;2024-01-07T07:54:55;100226.31;;;5.93;100.00
60099;BME280;62818;49.394;8.686;2024-01-07T07:56:56;100229.09;;;5.38;100.00
60099;BME280;62818;49.394;8.686;2024-01-07T07:58:56;100224.09;;;5.17;100.00
60099;BME280;62818;49.394;8.686;2024-01-07T08:00:57;100226.25;;;4.94;100.00
60099;BME280;62818;49.394;8.686;2024-01-07T08:02:58;100233.94;;;5.15;100.00
60099;BME280;62818;49.394;8.686;2024-01-07T08:05:01;100236.94;;;5.20;100.00
60099;BME280;62818;49.394;8.686;2024-01-07T08:07:02;100237.69;;;5.03;100.00
60099;BME280;62818;49.394;8.686;2024-01-07T08:09:02;100235.69;;;5.24;100.00
60099;BME280;62818;49.394;8.686;2024-01-07T08:11:03;100239.53;;;6.02;100.00
60099;BME280;62818;49.394;8.686;2024-01-07T08:13:07;100241.81;;;6.49;100.00
60099;BME280;62818;49.394;8.686;2024-01-07T08:15:09;100235.31;;;5.46;100.00
60099;BME280;62818;49.394;8.686;2024-01-07T08:17:09;100236.38;;;5.53;100.00
60099;BME280;62818;49.394;8.686;2024-01-07T08:19:10;100238.06;;;5.17;100.00
60099;BME280;62818;49.394;8.686;2024-01-07T08:21:10;100245.81;;;6.01;100.00
60099;BME280;62818;49.394;8.686;2024-01-07T08:23:11;100240.47;;;5.92;100.00
60099;BME280;62818;49.394;8.686;2024-01-07T08:25:11;100241.53;;;5.45;100.00
60099;BME280;62818;49.394;8.686;2024-01-07T08:27:13;100249.56;;;5.98;100.00
60099;BME280;62818;49.394;8.686;2024-01-07T08:29:13;100252.63;;;5.39;100.00
60099;BME280;62818;49.394;8.686;2024-01-07T08:31:14;100245.13;;;5.98;100.00
60099;BME280;62818;49.394;8.686;2024-01-07T08:33:14;100248.16;;;5.49;100.00
60099;BME280;62818;49.394;8.686;2024-01-07T08:35:15;100245.03;;;5.90;100.00
60099;BME280;62818;49.394;8.686;2024-01-07T08:37:15;100259.06;;;5.81;100.00
60099;BME280;62818;49.394;8.686;2024-01-07T08:39:16;100256.03;;;6.04;100.00
60099;BME280;62818;49.394;8.686;2024-01-07T08:41:17;100259.16;;;5.89;100.00
60099;BME280;62818;49.394;8.686;2024-01-07T08:43:18;100263.31;;;6.45;100.00
60099;BME280;62818;49.394;8.686;2024-01-07T08:45:18;100269.19;;;6.04;100.00
60099;BME280;62818;49.394;8.686;2024-01-07T08:47:19;100269.19;;;5.49;100.00
60099;BME280;62818;49.394;8.686;2024-01-07T08:49:19;100283.94;;;5.23;100.00
60099;BME280;62818;49.394;8.686;2024-01-07T08:51:20;100286.06;;;5.47;100.00
60099;BME280;62818;49.394;8.686;2024-01-07T08:53:20;100280.06;;;5.27;100.00
60099;BME280;62818;49.394;8.686;2024-01-07T08:55:22;100291.91;;;5.04;100.00
60099;BME280;62818;49.394;8.686;2024-01-07T08:57:22;100295.66;;;4.92;100.00
60099;BME280;62818;49.394;8.686;2024-01-07T08:59:23;100291.13;;;5.31;100.00
60099;BME280;62818;49.394;8.686;2024-01-07T09:01:24;100296.06;;;5.06;100.00
60099;BME280;62818;49.394;8.686;2024-01-07T09:03:24;100293.53;;;5.05;100.00
60099;BME280;62818;49.394;8.686;2024-01-07T09:05:25;100305.59;;;4.98;100.00
60099;BME280;62818;49.394;8.686;2024-01-07T09:07:25;100306.84;;;4.94;100.00
60099;BME280;62818;49.394;8.686;2024-01-07T09:09:26;100306.47;;;4.89;100.00
60099;BME280;62818;49.394;8.686;2024-01-07T09:11:26;100303.69;;;4.81;100.00
60099;BME280;62818;49.394;8.686;2024-01-07T09:13:27;100314.19;;;4.81;100.00
60099;BME280;62818;49.394;8.686;2024-01-07T09:15:27;100313.34;;;4.99;100.00
60099;BME280;62818;49.394;8.686;2024-01-07T09:17:28;100310.09;;;5.61;100.00
60099;BME280;62818;49.394;8.686;2024-01-07T09:19:28;100322.75;;;4.83;100.00
60099;BME280;62818;49.394;8.686;2024-01-07T09:21:29;100316.97;;;4.89;100.00
60099;BME280;62818;49.394;8.686;2024-01-07T09:23:30;100319.63;;;5.35;100.00
60099;BME280;62818;49.394;8.686;2024-01-07T09:25:30;100318.94;;;6.15;100.00
60099;BME280;62818;49.394;8.686;2024-01-07T09:27:32;100323.97;;;5.07;100.00
60099;BME280;62818;49.394;8.686;2024-01-07T09:29:33;100324.06;;;5.25;100.00
60099;BME280;62818;49.394;8.686;2024-01-07T09:31:33;100313.88;;;5.49;100.00
60099;BME280;62818;49.394;8.686;2024-01-07T09:33:34;100337.81;;;5.00;100.00
60099;BME280;62818;49.394;8.686;2024-01-07T09:35:34;100336.25;;;5.07;100.00
60099;BME280;62818;49.394;8.686;2024-01-07T09:37:35;100346.59;;;5.18;100.00
60099;BME280;62818;49.394;8.686;2024-01-07T09:39:40;100352.44;;;5.21;100.00
60099;BME280;62818;49.394;8.686;2024-01-07T09:41:41;100336.50;;;5.23;100.00
60099;BME280;62818;49.394;8.686;2024-01-07T09:43:42;100347.84;;;5.23;100.00
60099;BME280;62818;49.394;8.686;2024-01-07T09:45:46;100352.81;;;5.26;100.00
60099;BME280;62818;49.394;8.686;2024-01-07T09:47:48;100353.69;;;5.17;100.00
60099;BME280;62818;49.394;8.686;2024-01-07T09:49:49;100353.31;;;4.84;100.00
60099;BME280;62818;49.394;8.686;2024-01-07T09:51:50;100351.75;;;5.19;100.00
60099;BME280;62818;49.394;8.686;2024-01-07T09:54:02;100353.53;;;5.19;100.00
60099;BME280;62818;49.394;8.686;2024-01-07T09:56:27;100359.50;;;5.02;100.00
60099;BME280;62818;49.394;8.686;2024-01-07T09:58:32;100353.38;;;5.20;100.00
60099;BME280;62818;49.394;8.686;2024-01-07T10:00:33;100352.31;;;5.04;100.00
60099;BME280;62818;49.394;8.686;2024-01-07T10:02:34;100349.28;;;5.08;100.00
60099;BME280;62818;49.394;8.686;2024-01-07T10:04:35;100351.50;;;5.50;100.00
60099;BME280;62818;49.394;8.686;2024-01-07T10:06:36;100356.84;;;5.21;100.00
60099;BME280;62818;49.394;8.686;2024-01-07T10:08:38;100357.84;;;5.10;100.00
60099;BME280;62818;49.394;8.686;2024-01-07T10:10:39;100367.34;;;5.21;100.00
60099;BME280;62818;49.394;8.686;2024-01-07T10:12:44;100369.94;;;5.40;100.00
60099;BME280;62818;49.394;8.686;2024-01-07T10:14:46;100362.94;;;5.21;100.00
60099;BME280;62818;49.394;8.686;2024-01-07T10:16:46;100362.41;;;4.99;100.00
60099;BME280;62818;49.394;8.686;2024-01-07T10:18:47;100366.97;;;4.97;100.00
60099;BME280;62818;49.394;8.686;2024-01-07T10:20:47;100365.81;;;5.28;100.00
60099;BME280;62818;49.394;8.686;2024-01-07T10:22:51;100372.22;;;4.97;100.00
60099;BME280;62818;49.394;8.686;2024-01-07T10:24:52;100371.00;;;4.72;100.00
60099;BME280;62818;49.394;8.686;2024-01-07T10:26:52;100372.94;;;4.70;100.00
60099;BME280;62818;49.394;8.686;2024-01-07T10:28:53;100376.94;;;4.93;100.00
60099;BME280;62818;49.394;8.686;2024-01-07T10:30:54;100373.28;;;5.33;100.00
60099;BME280;62818;49.394;8.686;2024-01-07T10:32:56;100373.63;;;4.82;100.00
60099;BME280;62818;49.394;8.686;2024-01-07T10:35:03;100370.91;;;5.39;100.00